sensor_id;sensor_type;location;lat;lon;timestamp;temperature;humidity
70107;DHT22;57473;37.508;15.080;2023-06-22T00:01:22;25.50;56.70
70107;DHT22;57473;37.508;15.080;2023-06-22T00:03:51;25.50;57.00
70107;DHT22;57473;37.508;15.080;2023-06-22T00:06:18;25.50;57.30
70107;DHT22;57473;37.508;15.080;2023-06-22T00:08:46;25.50;56.10
70107;DHT22;57473;37.508;15.080;2023-06-22T00:11:13;25.60;56.70
70107;DHT22;57473;37.508;15.080;2023-06-22T00:13:41;25.50;56.70
70107;DHT22;57473;37.508;15.080;2023-06-22T00:16:08;25.50;56.80
70107;DHT22;57473;37.508;15.080;2023-06-22T00:18:35;25.50;56.40
70107;DHT22;57473;37.508;15.080;2023-06-22T00:21:03;25.40;56.80
70107;DHT22;57473;37.508;15.080;2023-06-22T00:23:31;25.40;56.50
70107;DHT22;57473;37.508;15.080;2023-06-22T00:26:01;25.40;56.20
70107;DHT22;57473;37.508;15.080;2023-06-22T00:28:29;25.40;56.10
70107;DHT22;57473;37.508;15.080;2023-06-22T00:30:57;25.40;56.40
70107;DHT22;57473;37.508;15.080;2023-06-22T00:33:25;25.40;56.60
70107;DHT22;57473;37.508;15.080;2023-06-22T00:35:52;25.30;56.20
70107;DHT22;57473;37.508;15.080;2023-06-22T00:38:20;25.30;55.70
70107;DHT22;57473;37.508;15.080;2023-06-22T00:40:48;25.30;56.10
70107;DHT22;57473;37.508;15.080;2023-06-22T00:43:15;25.20;55.60
70107;DHT22;57473;37.508;15.080;2023-06-22T00:45:43;25.30;55.70
70107;DHT22;57473;37.508;15.080;2023-06-22T00:48:12;25.20;56.10
70107;DHT22;57473;37.508;15.080;2023-06-22T00:50:41;25.20;56.20
70107;DHT22;57473;37.508;15.080;2023-06-22T00:53:09;25.20;55.80
70107;DHT22;57473;37.508;15.080;2023-06-22T00:55:41;25.10;55.90
70107;DHT22;57473;37.508;15.080;2023-06-22T00:58:19;25.10;55.60
70107;DHT22;57473;37.508;15.080;2023-06-22T01:00:49;25.10;55.50
70107;DHT22;57473;37.508;15.080;2023-06-22T01:03:16;25.10;55.50
70107;DHT22;57473;37.508;15.080;2023-06-22T01:05:47;25.10;55.40
70107;DHT22;57473;37.508;15.080;2023-06-22T01:10:51;25.10;55.50
70107;DHT22;57473;37.508;15.080;2023-06-22T01:13:33;25.10;55.90
70107;DHT22;57473;37.508;15.080;2023-06-22T01:16:03;25.00;56.10
70107;DHT22;57473;37.508;15.080;2023-06-22T01:18:32;25.00;56.40
70107;DHT22;57473;37.508;15.080;2023-06-22T01:21:06;25.00;56.60
70107;DHT22;57473;37.508;15.080;2023-06-22T01:26:28;25.00;55.50
70107;DHT22;57473;37.508;15.080;2023-06-22T01:29:04;25.00;56.10
70107;DHT22;57473;37.508;15.080;2023-06-22T01:31:32;24.90;56.40
70107;DHT22;57473;37.508;15.080;2023-06-22T01:34:04;24.90;55.90
70107;DHT22;57473;37.508;15.080;2023-06-22T01:36:33;24.90;56.20
70107;DHT22;57473;37.508;15.080;2023-06-22T01:39:02;24.90;56.20
70107;DHT22;57473;37.508;15.080;2023-06-22T01:41:35;24.90;56.20
70107;DHT22;57473;37.508;15.080;2023-06-22T01:44:06;24.80;56.40
70107;DHT22;57473;37.508;15.080;2023-06-22T01:46:37;24.80;56.30
70107;DHT22;57473;37.508;15.080;2023-06-22T01:49:06;24.80;56.00
70107;DHT22;57473;37.508;15.080;2023-06-22T01:51:36;24.80;55.70
70107;DHT22;57473;37.508;15.080;2023-06-22T01:54:05;24.80;56.10
70107;DHT22;57473;37.508;15.080;2023-06-22T01:56:32;24.80;56.30
70107;DHT22;57473;37.508;15.080;2023-06-22T02:01:54;24.70;56.50
70107;DHT22;57473;37.508;15.080;2023-06-22T02:04:27;24.80;56.20
70107;DHT22;57473;37.508;15.080;2023-06-22T02:07:00;24.80;56.00
70107;DHT22;57473;37.508;15.080;2023-06-22T02:09:34;24.70;56.30
70107;DHT22;57473;37.508;15.080;2023-06-22T02:12:03;24.70;56.60
70107;DHT22;57473;37.508;15.080;2023-06-22T02:14:33;24.70;56.00
70107;DHT22;57473;37.508;15.080;2023-06-22T02:17:01;24.80;55.60
70107;DHT22;57473;37.508;15.080;2023-06-22T02:19:30;24.80;55.40
70107;DHT22;57473;37.508;15.080;2023-06-22T02:22:00;24.80;55.70
70107;DHT22;57473;37.508;15.080;2023-06-22T02:24:27;24.70;55.50
70107;DHT22;57473;37.508;15.080;2023-06-22T02:26:59;24.70;55.50
70107;DHT22;57473;37.508;15.080;2023-06-22T02:29:27;24.70;55.50
70107;DHT22;57473;37.508;15.080;2023-06-22T02:31:55;24.70;55.80
70107;DHT22;57473;37.508;15.080;2023-06-22T02:34:23;24.70;55.10
70107;DHT22;57473;37.508;15.080;2023-06-22T02:36:51;24.70;55.70
70107;DHT22;57473;37.508;15.080;2023-06-22T02:39:22;24.70;55.60
70107;DHT22;57473;37.508;15.080;2023-06-22T02:41:50;24.60;55.90
70107;DHT22;57473;37.508;15.080;2023-06-22T02:44:18;24.60;55.80
70107;DHT22;57473;37.508;15.080;2023-06-22T02:46:47;24.50;56.20
70107;DHT22;57473;37.508;15.080;2023-06-22T02:49:16;24.50;56.20
70107;DHT22;57473;37.508;15.080;2023-06-22T02:51:48;24.50;55.90
70107;DHT22;57473;37.508;15.080;2023-06-22T02:54:19;24.50;55.00
70107;DHT22;57473;37.508;15.080;2023-06-22T02:56:49;24.50;55.00
70107;DHT22;57473;37.508;15.080;2023-06-22T02:59:19;24.60;54.10
70107;DHT22;57473;37.508;15.080;2023-06-22T03:01:59;24.70;53.90
70107;DHT22;57473;37.508;15.080;2023-06-22T03:04:29;24.70;54.20
70107;DHT22;57473;37.508;15.080;2023-06-22T03:06:58;24.70;54.10
70107;DHT22;57473;37.508;15.080;2023-06-22T03:09:30;24.70;53.50
70107;DHT22;57473;37.508;15.080;2023-06-22T03:11:58;24.70;54.50
70107;DHT22;57473;37.508;15.080;2023-06-22T03:14:32;24.60;54.10
70107;DHT22;57473;37.508;15.080;2023-06-22T03:16:59;24.70;53.80
70107;DHT22;57473;37.508;15.080;2023-06-22T03:19:30;24.70;54.40
70107;DHT22;57473;37.508;15.080;2023-06-22T03:22:00;24.60;53.90
70107;DHT22;57473;37.508;15.080;2023-06-22T03:24:28;24.60;54.50
70107;DHT22;57473;37.508;15.080;2023-06-22T03:26:56;24.50;54.70
70107;DHT22;57473;37.508;15.080;2023-06-22T03:29:23;24.50;54.60
70107;DHT22;57473;37.508;15.080;2023-06-22T03:31:55;24.40;54.70
70107;DHT22;57473;37.508;15.080;2023-06-22T03:34:23;24.40;55.10
70107;DHT22;57473;37.508;15.080;2023-06-22T03:36:52;24.40;55.00
70107;DHT22;57473;37.508;15.080;2023-06-22T03:39:19;24.40;54.50
70107;DHT22;57473;37.508;15.080;2023-06-22T03:41:47;24.40;54.80
70107;DHT22;57473;37.508;15.080;2023-06-22T03:44:15;24.40;55.00
70107;DHT22;57473;37.508;15.080;2023-06-22T03:46:42;24.30;54.20
70107;DHT22;57473;37.508;15.080;2023-06-22T03:49:11;24.40;54.20
70107;DHT22;57473;37.508;15.080;2023-06-22T03:51:38;24.40;54.30
70107;DHT22;57473;37.508;15.080;2023-06-22T03:54:06;24.40;54.30
70107;DHT22;57473;37.508;15.080;2023-06-22T03:56:33;24.40;54.10
70107;DHT22;57473;37.508;15.080;2023-06-22T03:59:01;24.40;54.30
70107;DHT22;57473;37.508;15.080;2023-06-22T04:01:29;24.40;54.40
70107;DHT22;57473;37.508;15.080;2023-06-22T04:03:56;24.40;53.80
70107;DHT22;57473;37.508;15.080;2023-06-22T04:06:24;24.40;53.40
70107;DHT22;57473;37.508;15.080;2023-06-22T04:08:51;24.50;53.40
70107;DHT22;57473;37.508;15.080;2023-06-22T04:11:19;24.50;53.30
70107;DHT22;57473;37.508;15.080;2023-06-22T04:13:46;24.50;53.20
70107;DHT22;57473;37.508;15.080;2023-06-22T04:16:15;24.60;52.80
70107;DHT22;57473;37.508;15.080;2023-06-22T04:18:43;24.70;53.00
70107;DHT22;57473;37.508;15.080;2023-06-22T04:21:10;24.70;53.00
70107;DHT22;57473;37.508;15.080;2023-06-22T04:23:38;24.70;53.10
70107;DHT22;57473;37.508;15.080;2023-06-22T04:26:05;24.70;52.80
70107;DHT22;57473;37.508;15.080;2023-06-22T04:28:32;24.80;52.70
70107;DHT22;57473;37.508;15.080;2023-06-22T04:31:03;24.80;53.00
70107;DHT22;57473;37.508;15.080;2023-06-22T04:33:30;24.80;53.30
70107;DHT22;57473;37.508;15.080;2023-06-22T04:35:58;24.80;52.90
70107;DHT22;57473;37.508;15.080;2023-06-22T04:38:30;24.90;52.50
70107;DHT22;57473;37.508;15.080;2023-06-22T04:41:00;25.00;52.60
70107;DHT22;57473;37.508;15.080;2023-06-22T04:43:29;25.00;52.20
70107;DHT22;57473;37.508;15.080;2023-06-22T04:45:59;25.10;51.70
70107;DHT22;57473;37.508;15.080;2023-06-22T04:48:30;25.10;51.60
70107;DHT22;57473;37.508;15.080;2023-06-22T04:51:02;25.20;51.60
70107;DHT22;57473;37.508;15.080;2023-06-22T04:53:31;25.30;51.50
70107;DHT22;57473;37.508;15.080;2023-06-22T04:55:59;25.40;51.20
70107;DHT22;57473;37.508;15.080;2023-06-22T04:58:26;25.50;50.70
70107;DHT22;57473;37.508;15.080;2023-06-22T05:00:59;25.50;51.30
70107;DHT22;57473;37.508;15.080;2023-06-22T05:03:27;25.60;51.20
70107;DHT22;57473;37.508;15.080;2023-06-22T05:05:54;25.60;50.50
70107;DHT22;57473;37.508;15.080;2023-06-22T05:08:22;25.70;50.30
70107;DHT22;57473;37.508;15.080;2023-06-22T05:10:53;25.80;50.40
70107;DHT22;57473;37.508;15.080;2023-06-22T05:13:32;25.90;50.40
70107;DHT22;57473;37.508;15.080;2023-06-22T05:15:59;25.90;50.30
70107;DHT22;57473;37.508;15.080;2023-06-22T05:18:33;26.00;50.20
70107;DHT22;57473;37.508;15.080;2023-06-22T05:21:02;26.10;50.30
70107;DHT22;57473;37.508;15.080;2023-06-22T05:23:30;26.20;50.50
70107;DHT22;57473;37.508;15.080;2023-06-22T05:25:57;26.30;50.50
70107;DHT22;57473;37.508;15.080;2023-06-22T05:28:25;26.40;50.50
70107;DHT22;57473;37.508;15.080;2023-06-22T05:30:53;26.50;50.50
70107;DHT22;57473;37.508;15.080;2023-06-22T05:33:20;26.60;50.30
70107;DHT22;57473;37.508;15.080;2023-06-22T05:35:48;26.70;49.70
70107;DHT22;57473;37.508;15.080;2023-06-22T05:38:15;26.80;49.30
70107;DHT22;57473;37.508;15.080;2023-06-22T05:40:43;27.00;49.10
70107;DHT22;57473;37.508;15.080;2023-06-22T05:43:10;27.10;47.70
70107;DHT22;57473;37.508;15.080;2023-06-22T05:45:37;27.20;46.80
70107;DHT22;57473;37.508;15.080;2023-06-22T05:48:05;27.30;46.70
70107;DHT22;57473;37.508;15.080;2023-06-22T05:50:32;27.40;47.10
70107;DHT22;57473;37.508;15.080;2023-06-22T05:53:00;27.60;47.40
70107;DHT22;57473;37.508;15.080;2023-06-22T05:55:28;27.60;48.50
70107;DHT22;57473;37.508;15.080;2023-06-22T05:57:55;27.60;48.50
70107;DHT22;57473;37.508;15.080;2023-06-22T06:00:22;27.70;47.80
70107;DHT22;57473;37.508;15.080;2023-06-22T06:02:51;27.70;47.00
70107;DHT22;57473;37.508;15.080;2023-06-22T06:05:19;27.80;47.10
70107;DHT22;57473;37.508;15.080;2023-06-22T06:07:46;27.90;46.00
70107;DHT22;57473;37.508;15.080;2023-06-22T06:10:14;28.00;45.80
70107;DHT22;57473;37.508;15.080;2023-06-22T06:12:41;28.10;46.10
70107;DHT22;57473;37.508;15.080;2023-06-22T06:15:09;28.20;45.40
70107;DHT22;57473;37.508;15.080;2023-06-22T06:17:46;28.40;45.20
70107;DHT22;57473;37.508;15.080;2023-06-22T06:20:14;28.60;44.30
70107;DHT22;57473;37.508;15.080;2023-06-22T06:22:41;28.80;43.40
70107;DHT22;57473;37.508;15.080;2023-06-22T06:25:12;29.00;43.10
70107;DHT22;57473;37.508;15.080;2023-06-22T06:27:44;29.20;43.90
70107;DHT22;57473;37.508;15.080;2023-06-22T06:30:13;29.40;43.00
70107;DHT22;57473;37.508;15.080;2023-06-22T06:32:42;29.50;41.90
70107;DHT22;57473;37.508;15.080;2023-06-22T06:35:10;29.70;41.60
70107;DHT22;57473;37.508;15.080;2023-06-22T06:37:40;29.90;42.40
70107;DHT22;57473;37.508;15.080;2023-06-22T06:40:09;30.10;42.00
70107;DHT22;57473;37.508;15.080;2023-06-22T06:42:44;30.30;41.90
70107;DHT22;57473;37.508;15.080;2023-06-22T06:45:17;30.40;39.90
70107;DHT22;57473;37.508;15.080;2023-06-22T06:47:46;30.50;39.90
70107;DHT22;57473;37.508;15.080;2023-06-22T06:50:13;30.60;39.70
70107;DHT22;57473;37.508;15.080;2023-06-22T06:52:42;30.70;39.50
70107;DHT22;57473;37.508;15.080;2023-06-22T06:55:10;30.70;37.90
70107;DHT22;57473;37.508;15.080;2023-06-22T06:57:40;30.50;37.80
70107;DHT22;57473;37.508;15.080;2023-06-22T07:00:11;30.60;39.00
70107;DHT22;57473;37.508;15.080;2023-06-22T07:02:43;30.70;37.90
70107;DHT22;57473;37.508;15.080;2023-06-22T07:05:11;30.80;36.90
70107;DHT22;57473;37.508;15.080;2023-06-22T07:07:40;30.90;36.50
70107;DHT22;57473;37.508;15.080;2023-06-22T07:10:09;31.00;37.00
70107;DHT22;57473;37.508;15.080;2023-06-22T07:12:36;31.00;37.40
70107;DHT22;57473;37.508;15.080;2023-06-22T07:15:08;31.10;38.20
70107;DHT22;57473;37.508;15.080;2023-06-22T07:17:37;31.10;38.30
70107;DHT22;57473;37.508;15.080;2023-06-22T07:20:05;31.10;38.20
70107;DHT22;57473;37.508;15.080;2023-06-22T07:22:37;31.00;38.80
70107;DHT22;57473;37.508;15.080;2023-06-22T07:25:05;31.00;38.40
70107;DHT22;57473;37.508;15.080;2023-06-22T07:27:43;31.00;38.90
70107;DHT22;57473;37.508;15.080;2023-06-22T07:30:11;30.80;39.80
70107;DHT22;57473;37.508;15.080;2023-06-22T07:32:40;30.80;42.60
70107;DHT22;57473;37.508;15.080;2023-06-22T07:35:08;30.30;45.10
70107;DHT22;57473;37.508;15.080;2023-06-22T07:37:35;30.40;44.90
70107;DHT22;57473;37.508;15.080;2023-06-22T07:40:04;30.60;45.70
70107;DHT22;57473;37.508;15.080;2023-06-22T07:42:33;30.60;46.70
70107;DHT22;57473;37.508;15.080;2023-06-22T07:45:06;30.60;47.70
70107;DHT22;57473;37.508;15.080;2023-06-22T07:47:35;30.60;47.40
70107;DHT22;57473;37.508;15.080;2023-06-22T07:50:04;30.50;47.60
70107;DHT22;57473;37.508;15.080;2023-06-22T07:52:31;30.50;47.00
70107;DHT22;57473;37.508;15.080;2023-06-22T07:54:59;30.70;46.10
70107;DHT22;57473;37.508;15.080;2023-06-22T07:57:29;30.50;44.90
70107;DHT22;57473;37.508;15.080;2023-06-22T08:00:03;30.60;45.00
70107;DHT22;57473;37.508;15.080;2023-06-22T08:02:39;30.80;43.90
70107;DHT22;57473;37.508;15.080;2023-06-22T08:05:08;31.00;43.70
70107;DHT22;57473;37.508;15.080;2023-06-22T08:07:48;31.00;43.80
70107;DHT22;57473;37.508;15.080;2023-06-22T08:10:17;31.00;43.50
70107;DHT22;57473;37.508;15.080;2023-06-22T08:12:44;31.00;41.20
70107;DHT22;57473;37.508;15.080;2023-06-22T08:15:12;31.10;40.80
70107;DHT22;57473;37.508;15.080;2023-06-22T08:17:40;31.30;41.20
70107;DHT22;57473;37.508;15.080;2023-06-22T08:20:08;31.40;40.70
70107;DHT22;57473;37.508;15.080;2023-06-22T08:22:44;31.40;40.20
70107;DHT22;57473;37.508;15.080;2023-06-22T08:25:12;31.40;40.20
70107;DHT22;57473;37.508;15.080;2023-06-22T08:27:40;31.40;39.50
70107;DHT22;57473;37.508;15.080;2023-06-22T08:30:12;31.40;39.10
70107;DHT22;57473;37.508;15.080;2023-06-22T08:32:39;31.40;39.20
70107;DHT22;57473;37.508;15.080;2023-06-22T08:35:07;31.50;39.10
70107;DHT22;57473;37.508;15.080;2023-06-22T08:37:37;31.60;39.50
70107;DHT22;57473;37.508;15.080;2023-06-22T08:40:08;31.80;38.30
70107;DHT22;57473;37.508;15.080;2023-06-22T08:42:37;31.90;36.10
70107;DHT22;57473;37.508;15.080;2023-06-22T08:45:06;32.00;37.80
70107;DHT22;57473;37.508;15.080;2023-06-22T08:47:34;32.00;36.80
70107;DHT22;57473;37.508;15.080;2023-06-22T08:50:01;32.00;36.10
70107;DHT22;57473;37.508;15.080;2023-06-22T08:52:32;32.10;35.90
70107;DHT22;57473;37.508;15.080;2023-06-22T08:54:59;32.20;34.50
70107;DHT22;57473;37.508;15.080;2023-06-22T08:57:27;32.10;34.60
70107;DHT22;57473;37.508;15.080;2023-06-22T08:59:56;32.10;35.60
70107;DHT22;57473;37.508;15.080;2023-06-22T09:02:26;32.30;35.80
70107;DHT22;57473;37.508;15.080;2023-06-22T09:04:58;32.50;36.00
70107;DHT22;57473;37.508;15.080;2023-06-22T09:07:26;32.70;36.10
70107;DHT22;57473;37.508;15.080;2023-06-22T09:09:53;32.50;36.60
70107;DHT22;57473;37.508;15.080;2023-06-22T09:12:21;32.40;37.30
70107;DHT22;57473;37.508;15.080;2023-06-22T09:14:53;32.40;37.70
70107;DHT22;57473;37.508;15.080;2023-06-22T09:17:20;32.50;35.90
70107;DHT22;57473;37.508;15.080;2023-06-22T09:19:48;32.50;36.20
70107;DHT22;57473;37.508;15.080;2023-06-22T09:22:15;32.50;36.20
70107;DHT22;57473;37.508;15.080;2023-06-22T09:24:43;32.40;36.50
70107;DHT22;57473;37.508;15.080;2023-06-22T09:27:10;32.50;37.30
70107;DHT22;57473;37.508;15.080;2023-06-22T09:29:37;32.60;35.20
70107;DHT22;57473;37.508;15.080;2023-06-22T09:32:05;32.80;35.50
70107;DHT22;57473;37.508;15.080;2023-06-22T09:34:33;32.70;34.40
70107;DHT22;57473;37.508;15.080;2023-06-22T09:37:00;32.90;34.50
70107;DHT22;57473;37.508;15.080;2023-06-22T09:39:27;32.90;33.40
70107;DHT22;57473;37.508;15.080;2023-06-22T09:41:55;33.10;35.10
70107;DHT22;57473;37.508;15.080;2023-06-22T09:44:22;33.00;32.70
70107;DHT22;57473;37.508;15.080;2023-06-22T09:46:50;32.80;33.70
70107;DHT22;57473;37.508;15.080;2023-06-22T09:49:18;32.80;35.10
70107;DHT22;57473;37.508;15.080;2023-06-22T09:52:04;32.80;34.30
70107;DHT22;57473;37.508;15.080;2023-06-22T09:54:32;32.90;34.90
70107;DHT22;57473;37.508;15.080;2023-06-22T09:56:59;32.70;33.90
70107;DHT22;57473;37.508;15.080;2023-06-22T09:59:27;32.80;34.90
70107;DHT22;57473;37.508;15.080;2023-06-22T10:01:55;32.70;35.30
70107;DHT22;57473;37.508;15.080;2023-06-22T10:04:22;32.70;33.70
70107;DHT22;57473;37.508;15.080;2023-06-22T10:06:50;32.70;34.20
70107;DHT22;57473;37.508;15.080;2023-06-22T10:09:18;32.80;33.80
70107;DHT22;57473;37.508;15.080;2023-06-22T10:11:45;32.80;34.20
70107;DHT22;57473;37.508;15.080;2023-06-22T10:14:13;32.70;35.00
70107;DHT22;57473;37.508;15.080;2023-06-22T10:16:40;33.00;35.50
70107;DHT22;57473;37.508;15.080;2023-06-22T10:19:08;33.10;34.40
70107;DHT22;57473;37.508;15.080;2023-06-22T10:21:36;32.80;35.20
70107;DHT22;57473;37.508;15.080;2023-06-22T10:24:04;32.60;35.60
70107;DHT22;57473;37.508;15.080;2023-06-22T10:26:34;32.80;37.10
70107;DHT22;57473;37.508;15.080;2023-06-22T10:29:03;32.80;37.30
70107;DHT22;57473;37.508;15.080;2023-06-22T10:31:43;32.90;37.80
70107;DHT22;57473;37.508;15.080;2023-06-22T10:34:10;32.70;39.70
70107;DHT22;57473;37.508;15.080;2023-06-22T10:36:38;32.80;40.20
70107;DHT22;57473;37.508;15.080;2023-06-22T10:39:06;32.90;40.10
70107;DHT22;57473;37.508;15.080;2023-06-22T10:41:34;33.00;38.90
70107;DHT22;57473;37.508;15.080;2023-06-22T10:44:02;33.20;36.60
70107;DHT22;57473;37.508;15.080;2023-06-22T10:46:29;33.20;35.10
70107;DHT22;57473;37.508;15.080;2023-06-22T10:48:57;33.30;33.90
70107;DHT22;57473;37.508;15.080;2023-06-22T10:51:25;33.20;34.80
70107;DHT22;57473;37.508;15.080;2023-06-22T10:53:55;33.20;34.80
70107;DHT22;57473;37.508;15.080;2023-06-22T10:56:23;33.20;35.30
70107;DHT22;57473;37.508;15.080;2023-06-22T10:58:51;33.50;35.20
70107;DHT22;57473;37.508;15.080;2023-06-22T11:01:19;33.60;35.30
70107;DHT22;57473;37.508;15.080;2023-06-22T11:04:02;33.70;35.00
70107;DHT22;57473;37.508;15.080;2023-06-22T11:06:30;33.90;35.40
70107;DHT22;57473;37.508;15.080;2023-06-22T11:08:57;34.10;35.40
70107;DHT22;57473;37.508;15.080;2023-06-22T11:11:43;34.30;35.40
70107;DHT22;57473;37.508;15.080;2023-06-22T11:14:10;34.50;36.30
70107;DHT22;57473;37.508;15.080;2023-06-22T11:16:38;35.00;35.90
70107;DHT22;57473;37.508;15.080;2023-06-22T11:19:05;35.10;35.80
70107;DHT22;57473;37.508;15.080;2023-06-22T11:21:32;35.20;35.90
70107;DHT22;57473;37.508;15.080;2023-06-22T11:24:00;35.50;35.10
70107;DHT22;57473;37.508;15.080;2023-06-22T11:26:28;36.10;34.30
70107;DHT22;57473;37.508;15.080;2023-06-22T11:28:55;36.30;33.50
70107;DHT22;57473;37.508;15.080;2023-06-22T11:31:24;36.30;33.30
70107;DHT22;57473;37.508;15.080;2023-06-22T11:33:53;36.10;33.00
70107;DHT22;57473;37.508;15.080;2023-06-22T11:36:20;35.70;33.60
70107;DHT22;57473;37.508;15.080;2023-06-22T11:38:48;35.90;33.20
70107;DHT22;57473;37.508;15.080;2023-06-22T11:41:15;36.20;33.00
70107;DHT22;57473;37.508;15.080;2023-06-22T11:43:43;36.10;32.70
70107;DHT22;57473;37.508;15.080;2023-06-22T11:46:10;35.50;33.60
70107;DHT22;57473;37.508;15.080;2023-06-22T11:48:38;35.60;33.70
70107;DHT22;57473;37.508;15.080;2023-06-22T11:51:05;35.80;33.40
70107;DHT22;57473;37.508;15.080;2023-06-22T11:53:33;36.60;32.60
70107;DHT22;57473;37.508;15.080;2023-06-22T11:56:01;37.20;32.00
70107;DHT22;57473;37.508;15.080;2023-06-22T11:58:29;37.20;32.00
70107;DHT22;57473;37.508;15.080;2023-06-22T12:00:56;37.60;31.30
70107;DHT22;57473;37.508;15.080;2023-06-22T12:03:24;37.20;31.50
70107;DHT22;57473;37.508;15.080;2023-06-22T12:05:51;37.40;31.00
70107;DHT22;57473;37.508;15.080;2023-06-22T12:08:19;37.20;30.10
70107;DHT22;57473;37.508;15.080;2023-06-22T12:10:47;37.40;30.00
70107;DHT22;57473;37.508;15.080;2023-06-22T12:13:15;37.90;29.60
70107;DHT22;57473;37.508;15.080;2023-06-22T12:15:42;37.50;29.30
70107;DHT22;57473;37.508;15.080;2023-06-22T12:18:10;37.90;28.70
70107;DHT22;57473;37.508;15.080;2023-06-22T12:20:37;38.10;28.70
70107;DHT22;57473;37.508;15.080;2023-06-22T12:23:04;38.20;28.80
70107;DHT22;57473;37.508;15.080;2023-06-22T12:25:32;38.20;28.40
70107;DHT22;57473;37.508;15.080;2023-06-22T12:27:59;38.20;28.80
70107;DHT22;57473;37.508;15.080;2023-06-22T12:30:27;38.20;29.20
70107;DHT22;57473;37.508;15.080;2023-06-22T12:32:55;38.20;28.80
70107;DHT22;57473;37.508;15.080;2023-06-22T12:35:23;37.90;29.70
70107;DHT22;57473;37.508;15.080;2023-06-22T12:37:50;38.00;29.30
70107;DHT22;57473;37.508;15.080;2023-06-22T12:40:17;38.30;29.10
70107;DHT22;57473;37.508;15.080;2023-06-22T12:42:46;38.30;29.20
70107;DHT22;57473;37.508;15.080;2023-06-22T12:45:13;38.30;29.00
70107;DHT22;57473;37.508;15.080;2023-06-22T12:47:41;38.50;29.20
70107;DHT22;57473;37.508;15.080;2023-06-22T12:50:09;38.70;28.80
70107;DHT22;57473;37.508;15.080;2023-06-22T12:52:37;39.30;28.00
70107;DHT22;57473;37.508;15.080;2023-06-22T12:55:08;39.10;28.10
70107;DHT22;57473;37.508;15.080;2023-06-22T12:57:36;38.70;28.30
70107;DHT22;57473;37.508;15.080;2023-06-22T13:00:04;39.00;28.00
70107;DHT22;57473;37.508;15.080;2023-06-22T13:02:39;39.40;27.50
70107;DHT22;57473;37.508;15.080;2023-06-22T13:05:07;39.20;26.60
70107;DHT22;57473;37.508;15.080;2023-06-22T13:07:34;38.80;27.20
70107;DHT22;57473;37.508;15.080;2023-06-22T13:10:02;39.00;27.00
70107;DHT22;57473;37.508;15.080;2023-06-22T13:12:30;39.30;25.70
70107;DHT22;57473;37.508;15.080;2023-06-22T13:14:57;39.20;25.30
70107;DHT22;57473;37.508;15.080;2023-06-22T13:17:24;38.50;24.90
70107;DHT22;57473;37.508;15.080;2023-06-22T13:19:52;38.60;25.00
70107;DHT22;57473;37.508;15.080;2023-06-22T13:22:28;38.70;25.20
70107;DHT22;57473;37.508;15.080;2023-06-22T13:24:59;38.30;25.20
70107;DHT22;57473;37.508;15.080;2023-06-22T13:27:27;38.40;25.10
70107;DHT22;57473;37.508;15.080;2023-06-22T13:29:54;38.40;25.00
70107;DHT22;57473;37.508;15.080;2023-06-22T13:32:22;38.40;25.00
70107;DHT22;57473;37.508;15.080;2023-06-22T13:34:50;38.40;24.70
70107;DHT22;57473;37.508;15.080;2023-06-22T13:37:18;38.30;25.50
70107;DHT22;57473;37.508;15.080;2023-06-22T13:39:46;38.70;25.60
70107;DHT22;57473;37.508;15.080;2023-06-22T13:42:13;38.60;25.50
70107;DHT22;57473;37.508;15.080;2023-06-22T13:44:42;38.70;25.80
70107;DHT22;57473;37.508;15.080;2023-06-22T13:47:10;38.60;25.80
70107;DHT22;57473;37.508;15.080;2023-06-22T13:49:37;38.90;26.10
70107;DHT22;57473;37.508;15.080;2023-06-22T13:52:05;39.20;25.90
70107;DHT22;57473;37.508;15.080;2023-06-22T13:54:37;39.50;25.70
70107;DHT22;57473;37.508;15.080;2023-06-22T13:57:04;39.20;25.50
70107;DHT22;57473;37.508;15.080;2023-06-22T13:59:32;39.40;25.10
70107;DHT22;57473;37.508;15.080;2023-06-22T14:01:59;39.50;24.80
70107;DHT22;57473;37.508;15.080;2023-06-22T14:04:27;39.20;25.60
70107;DHT22;57473;37.508;15.080;2023-06-22T14:06:55;39.30;25.50
70107;DHT22;57473;37.508;15.080;2023-06-22T14:09:23;39.40;25.50
70107;DHT22;57473;37.508;15.080;2023-06-22T14:11:51;39.30;25.80
70107;DHT22;57473;37.508;15.080;2023-06-22T14:14:18;39.40;25.90
70107;DHT22;57473;37.508;15.080;2023-06-22T14:16:45;39.20;26.20
70107;DHT22;57473;37.508;15.080;2023-06-22T14:19:13;39.00;25.90
70107;DHT22;57473;37.508;15.080;2023-06-22T14:21:40;39.40;25.90
70107;DHT22;57473;37.508;15.080;2023-06-22T14:24:07;39.30;25.90
70107;DHT22;57473;37.508;15.080;2023-06-22T14:26:35;39.00;26.00
70107;DHT22;57473;37.508;15.080;2023-06-22T14:29:02;39.00;26.10
70107;DHT22;57473;37.508;15.080;2023-06-22T14:31:31;38.60;26.50
70107;DHT22;57473;37.508;15.080;2023-06-22T14:34:00;38.30;26.90
70107;DHT22;57473;37.508;15.080;2023-06-22T14:36:27;38.40;27.10
70107;DHT22;57473;37.508;15.080;2023-06-22T14:38:54;37.00;28.90
70107;DHT22;57473;37.508;15.080;2023-06-22T14:41:22;35.50;30.70
70107;DHT22;57473;37.508;15.080;2023-06-22T14:43:50;34.70;31.80
70107;DHT22;57473;37.508;15.080;2023-06-22T14:46:18;34.00;32.90
70107;DHT22;57473;37.508;15.080;2023-06-22T14:48:46;33.90;33.70
70107;DHT22;57473;37.508;15.080;2023-06-22T14:51:14;33.80;33.90
70107;DHT22;57473;37.508;15.080;2023-06-22T14:53:46;33.70;34.30
70107;DHT22;57473;37.508;15.080;2023-06-22T14:56:13;33.20;34.50
70107;DHT22;57473;37.508;15.080;2023-06-22T14:58:43;32.60;35.90
70107;DHT22;57473;37.508;15.080;2023-06-22T15:01:14;32.50;36.30
70107;DHT22;57473;37.508;15.080;2023-06-22T15:03:41;32.40;36.70
70107;DHT22;57473;37.508;15.080;2023-06-22T15:06:09;32.40;36.60
70107;DHT22;57473;37.508;15.080;2023-06-22T15:08:38;32.20;37.20
70107;DHT22;57473;37.508;15.080;2023-06-22T15:11:06;32.30;37.80
70107;DHT22;57473;37.508;15.080;2023-06-22T15:13:34;31.80;38.30
70107;DHT22;57473;37.508;15.080;2023-06-22T15:16:02;31.90;38.60
70107;DHT22;57473;37.508;15.080;2023-06-22T15:18:31;31.90;38.90
70107;DHT22;57473;37.508;15.080;2023-06-22T15:21:01;31.90;38.50
70107;DHT22;57473;37.508;15.080;2023-06-22T15:23:32;31.80;39.10
70107;DHT22;57473;37.508;15.080;2023-06-22T15:26:02;31.90;38.80
70107;DHT22;57473;37.508;15.080;2023-06-22T15:28:31;32.00;38.60
70107;DHT22;57473;37.508;15.080;2023-06-22T15:31:04;32.00;39.20
70107;DHT22;57473;37.508;15.080;2023-06-22T15:33:32;31.90;39.80